sensor_id;sensor_type;location;lat;lon;timestamp;P1;durP1;ratioP1;P2;durP2;ratioP2
13981;SDS011;7065;50.880;5.502;2023-06-26T00:01:16;7.57;;;6.95;;
13981;SDS011;7065;50.880;5.502;2023-06-26T00:03:45;8.57;;;7.00;;
13981;SDS011;7065;50.880;5.502;2023-06-26T00:06:12;9.30;;;8.40;;
13981;SDS011;7065;50.880;5.502;2023-06-26T00:08:37;9.73;;;8.82;;
13981;SDS011;7065;50.880;5.502;2023-06-26T00:11:03;9.10;;;8.20;;
13981;SDS011;7065;50.880;5.502;2023-06-26T00:13:29;8.93;;;8.13;;
13981;SDS011;7065;50.880;5.502;2023-06-26T00:15:54;7.75;;;7.03;;
13981;SDS011;7065;50.880;5.502;2023-06-26T00:18:20;7.28;;;6.53;;
13981;SDS011;7065;50.880;5.502;2023-06-26T00:20:46;8.98;;;6.88;;
13981;SDS011;7065;50.880;5.502;2023-06-26T00:23:12;6.70;;;6.07;;
13981;SDS011;7065;50.880;5.502;2023-06-26T00:25:38;8.32;;;6.68;;
13981;SDS011;7065;50.880;5.502;2023-06-26T00:28:04;7.03;;;6.43;;
13981;SDS011;7065;50.880;5.502;2023-06-26T00:30:29;7.03;;;6.22;;
13981;SDS011;7065;50.880;5.502;2023-06-26T00:32:55;6.88;;;6.20;;
13981;SDS011;7065;50.880;5.502;2023-06-26T00:35:21;6.57;;;5.93;;
13981;SDS011;7065;50.880;5.502;2023-06-26T00:37:47;6.88;;;6.20;;
13981;SDS011;7065;50.880;5.502;2023-06-26T00:40:13;6.70;;;6.07;;
13981;SDS011;7065;50.880;5.502;2023-06-26T00:42:38;7.70;;;6.72;;
13981;SDS011;7065;50.880;5.502;2023-06-26T00:45:04;7.22;;;6.65;;
13981;SDS011;7065;50.880;5.502;2023-06-26T00:47:30;7.30;;;6.70;;
13981;SDS011;7065;50.880;5.502;2023-06-26T00:49:56;7.82;;;6.22;;
13981;SDS011;7065;50.880;5.502;2023-06-26T00:52:22;6.50;;;5.90;;
13981;SDS011;7065;50.880;5.502;2023-06-26T00:54:48;7.20;;;6.47;;
13981;SDS011;7065;50.880;5.502;2023-06-26T00:57:16;7.68;;;6.90;;
13981;SDS011;7065;50.880;5.502;2023-06-26T00:59:42;7.38;;;6.78;;
13981;SDS011;7065;50.880;5.502;2023-06-26T01:02:09;7.20;;;6.60;;
13981;SDS011;7065;50.880;5.502;2023-06-26T01:04:35;7.05;;;6.35;;
13981;SDS011;7065;50.880;5.502;2023-06-26T01:07:01;7.65;;;6.85;;
13981;SDS011;7065;50.880;5.502;2023-06-26T01:09:28;7.35;;;6.65;;
13981;SDS011;7065;50.880;5.502;2023-06-26T01:11:56;7.38;;;6.78;;
13981;SDS011;7065;50.880;5.502;2023-06-26T01:14:23;7.20;;;6.55;;
13981;SDS011;7065;50.880;5.502;2023-06-26T01:16:49;6.75;;;6.15;;
13981;SDS011;7065;50.880;5.502;2023-06-26T01:19:20;7.28;;;6.55;;
13981;SDS011;7065;50.880;5.502;2023-06-26T01:22:00;7.10;;;6.40;;
13981;SDS011;7065;50.880;5.502;2023-06-26T01:24:39;7.15;;;6.50;;
13981;SDS011;7065;50.880;5.502;2023-06-26T01:27:16;7.75;;;6.60;;
13981;SDS011;7065;50.880;5.502;2023-06-26T01:29:44;7.10;;;6.40;;
13981;SDS011;7065;50.880;5.502;2023-06-26T01:32:11;7.43;;;6.72;;
13981;SDS011;7065;50.880;5.502;2023-06-26T01:34:37;7.75;;;7.05;;
13981;SDS011;7065;50.880;5.502;2023-06-26T01:37:03;7.43;;;6.72;;
13981;SDS011;7065;50.880;5.502;2023-06-26T01:39:29;8.60;;;7.53;;
13981;SDS011;7065;50.880;5.502;2023-06-26T01:41:55;8.07;;;7.38;;
13981;SDS011;7065;50.880;5.502;2023-06-26T01:44:28;8.05;;;6.88;;
13981;SDS011;7065;50.880;5.502;2023-06-26T01:47:04;9.68;;;7.07;;
13981;SDS011;7065;50.880;5.502;2023-06-26T01:52:03;7.45;;;6.72;;
13981;SDS011;7065;50.880;5.502;2023-06-26T01:54:42;7.60;;;6.82;;
13981;SDS011;7065;50.880;5.502;2023-06-26T01:57:17;8.52;;;6.65;;
13981;SDS011;7065;50.880;5.502;2023-06-26T01:59:45;8.00;;;7.20;;
13981;SDS011;7065;50.880;5.502;2023-06-26T02:02:11;7.35;;;6.72;;
13981;SDS011;7065;50.880;5.502;2023-06-26T02:04:38;7.28;;;6.55;;
13981;SDS011;7065;50.880;5.502;2023-06-26T02:07:03;8.60;;;7.80;;
13981;SDS011;7065;50.880;5.502;2023-06-26T02:09:29;7.65;;;6.95;;
13981;SDS011;7065;50.880;5.502;2023-06-26T02:11:55;7.18;;;6.10;;
13981;SDS011;7065;50.880;5.502;2023-06-26T02:14:20;10.30;;;6.53;;
13981;SDS011;7065;50.880;5.502;2023-06-26T02:16:46;6.75;;;6.05;;
13981;SDS011;7065;50.880;5.502;2023-06-26T02:19:12;7.13;;;6.22;;
13981;SDS011;7065;50.880;5.502;2023-06-26T02:21:37;6.47;;;5.88;;
13981;SDS011;7065;50.880;5.502;2023-06-26T02:24:04;6.00;;;5.45;;
13981;SDS011;7065;50.880;5.502;2023-06-26T02:26:30;6.43;;;5.30;;
13981;SDS011;7065;50.880;5.502;2023-06-26T02:28:56;6.65;;;5.80;;
13981;SDS011;7065;50.880;5.502;2023-06-26T02:31:22;6.45;;;5.80;;
13981;SDS011;7065;50.880;5.502;2023-06-26T02:33:47;6.63;;;5.55;;
13981;SDS011;7065;50.880;5.502;2023-06-26T02:36:14;7.80;;;5.50;;
13981;SDS011;7065;50.880;5.502;2023-06-26T02:38:40;6.05;;;5.45;;
13981;SDS011;7065;50.880;5.502;2023-06-26T02:41:06;6.38;;;5.75;;
13981;SDS011;7065;50.880;5.502;2023-06-26T02:43:31;6.22;;;5.63;;
13981;SDS011;7065;50.880;5.502;2023-06-26T02:45:57;5.90;;;5.30;;
13981;SDS011;7065;50.880;5.502;2023-06-26T02:48:23;5.82;;;5.32;;
13981;SDS011;7065;50.880;5.502;2023-06-26T02:50:48;6.00;;;5.18;;
13981;SDS011;7065;50.880;5.502;2023-06-26T02:53:14;6.20;;;5.60;;
13981;SDS011;7065;50.880;5.502;2023-06-26T02:55:41;8.43;;;5.53;;
13981;SDS011;7065;50.880;5.502;2023-06-26T02:58:06;6.57;;;4.93;;
13981;SDS011;7065;50.880;5.502;2023-06-26T03:00:32;6.63;;;4.43;;
13981;SDS011;7065;50.880;5.502;2023-06-26T03:02:57;6.80;;;5.05;;
13981;SDS011;7065;50.880;5.502;2023-06-26T03:05:23;8.10;;;5.20;;
13981;SDS011;7065;50.880;5.502;2023-06-26T03:07:49;5.10;;;4.30;;
13981;SDS011;7065;50.880;5.502;2023-06-26T03:10:15;5.85;;;4.60;;
13981;SDS011;7065;50.880;5.502;2023-06-26T03:12:41;5.53;;;4.68;;
13981;SDS011;7065;50.880;5.502;2023-06-26T03:15:07;5.70;;;4.80;;
13981;SDS011;7065;50.880;5.502;2023-06-26T03:17:33;6.25;;;5.00;;
13981;SDS011;7065;50.880;5.502;2023-06-26T03:19:59;5.45;;;4.95;;
13981;SDS011;7065;50.880;5.502;2023-06-26T03:22:24;6.03;;;4.68;;
13981;SDS011;7065;50.880;5.502;2023-06-26T03:24:51;7.03;;;4.82;;
13981;SDS011;7065;50.880;5.502;2023-06-26T03:27:16;5.20;;;4.60;;
13981;SDS011;7065;50.880;5.502;2023-06-26T03:29:42;6.50;;;5.13;;
13981;SDS011;7065;50.880;5.502;2023-06-26T03:32:08;7.07;;;5.20;;
13981;SDS011;7065;50.880;5.502;2023-06-26T03:34:35;6.28;;;5.38;;
13981;SDS011;7065;50.880;5.502;2023-06-26T03:37:01;7.03;;;5.00;;
13981;SDS011;7065;50.880;5.502;2023-06-26T03:39:27;5.35;;;4.90;;
13981;SDS011;7065;50.880;5.502;2023-06-26T03:41:52;5.60;;;5.05;;
13981;SDS011;7065;50.880;5.502;2023-06-26T03:44:19;6.03;;;5.43;;
13981;SDS011;7065;50.880;5.502;2023-06-26T03:46:47;6.65;;;5.18;;
13981;SDS011;7065;50.880;5.502;2023-06-26T03:49:12;8.05;;;5.28;;
13981;SDS011;7065;50.880;5.502;2023-06-26T03:51:39;8.18;;;5.07;;
13981;SDS011;7065;50.880;5.502;2023-06-26T03:54:05;5.30;;;4.80;;
13981;SDS011;7065;50.880;5.502;2023-06-26T03:56:30;7.00;;;5.10;;
13981;SDS011;7065;50.880;5.502;2023-06-26T03:58:56;6.35;;;4.88;;
13981;SDS011;7065;50.880;5.502;2023-06-26T04:01:22;6.90;;;4.90;;
13981;SDS011;7065;50.880;5.502;2023-06-26T04:03:48;5.22;;;4.72;;
13981;SDS011;7065;50.880;5.502;2023-06-26T04:06:13;6.45;;;4.78;;
13981;SDS011;7065;50.880;5.502;2023-06-26T04:08:39;8.40;;;4.70;;
13981;SDS011;7065;50.880;5.502;2023-06-26T04:11:05;6.22;;;4.78;;
13981;SDS011;7065;50.880;5.502;2023-06-26T04:13:30;6.60;;;4.72;;
13981;SDS011;7065;50.880;5.502;2023-06-26T04:15:56;7.28;;;4.28;;
13981;SDS011;7065;50.880;5.502;2023-06-26T04:18:21;6.03;;;4.53;;
13981;SDS011;7065;50.880;5.502;2023-06-26T04:23:33;7.75;;;4.30;;
13981;SDS011;7065;50.880;5.502;2023-06-26T04:25:59;5.88;;;4.63;;
13981;SDS011;7065;50.880;5.502;2023-06-26T04:28:25;7.45;;;4.75;;
13981;SDS011;7065;50.880;5.502;2023-06-26T04:30:50;7.68;;;4.78;;
13981;SDS011;7065;50.880;5.502;2023-06-26T04:33:17;6.93;;;4.55;;
13981;SDS011;7065;50.880;5.502;2023-06-26T04:35:42;6.53;;;4.57;;
13981;SDS011;7065;50.880;5.502;2023-06-26T04:38:14;5.20;;;4.68;;
13981;SDS011;7065;50.880;5.502;2023-06-26T04:40:40;8.38;;;5.28;;
13981;SDS011;7065;50.880;5.502;2023-06-26T04:43:06;7.10;;;4.68;;
13981;SDS011;7065;50.880;5.502;2023-06-26T04:45:32;8.15;;;5.43;;
13981;SDS011;7065;50.880;5.502;2023-06-26T04:47:58;6.00;;;4.90;;
13981;SDS011;7065;50.880;5.502;2023-06-26T04:50:25;7.88;;;5.20;;
13981;SDS011;7065;50.880;5.502;2023-06-26T04:52:51;7.15;;;4.72;;
13981;SDS011;7065;50.880;5.502;2023-06-26T04:55:16;8.30;;;4.15;;
13981;SDS011;7065;50.880;5.502;2023-06-26T04:57:42;7.28;;;5.00;;
13981;SDS011;7065;50.880;5.502;2023-06-26T05:00:08;8.20;;;5.25;;
13981;SDS011;7065;50.880;5.502;2023-06-26T05:02:34;9.43;;;5.07;;
13981;SDS011;7065;50.880;5.502;2023-06-26T05:05:00;8.48;;;4.75;;
13981;SDS011;7065;50.880;5.502;2023-06-26T05:07:26;7.18;;;5.15;;
13981;SDS011;7065;50.880;5.502;2023-06-26T05:09:52;7.80;;;4.90;;
13981;SDS011;7065;50.880;5.502;2023-06-26T05:12:18;6.65;;;4.70;;
13981;SDS011;7065;50.880;5.502;2023-06-26T05:14:43;7.82;;;4.93;;
13981;SDS011;7065;50.880;5.502;2023-06-26T05:17:10;8.02;;;4.90;;
13981;SDS011;7065;50.880;5.502;2023-06-26T05:19:36;10.38;;;5.90;;
13981;SDS011;7065;50.880;5.502;2023-06-26T05:22:01;8.60;;;5.70;;
13981;SDS011;7065;50.880;5.502;2023-06-26T05:24:32;7.10;;;5.63;;
13981;SDS011;7065;50.880;5.502;2023-06-26T05:27:01;10.45;;;5.22;;
13981;SDS011;7065;50.880;5.502;2023-06-26T05:29:27;7.05;;;4.85;;
13981;SDS011;7065;50.880;5.502;2023-06-26T05:31:55;10.18;;;6.13;;
13981;SDS011;7065;50.880;5.502;2023-06-26T05:34:22;8.88;;;5.22;;
13981;SDS011;7065;50.880;5.502;2023-06-26T05:36:50;7.88;;;5.25;;
13981;SDS011;7065;50.880;5.502;2023-06-26T05:39:17;10.35;;;5.70;;
13981;SDS011;7065;50.880;5.502;2023-06-26T05:41:43;10.93;;;5.50;;
13981;SDS011;7065;50.880;5.502;2023-06-26T05:44:09;7.82;;;5.35;;
13981;SDS011;7065;50.880;5.502;2023-06-26T05:46:35;7.97;;;5.03;;
13981;SDS011;7065;50.880;5.502;2023-06-26T05:49:01;8.55;;;5.93;;
13981;SDS011;7065;50.880;5.502;2023-06-26T05:51:27;10.85;;;5.30;;
13981;SDS011;7065;50.880;5.502;2023-06-26T05:53:53;9.98;;;6.05;;
13981;SDS011;7065;50.880;5.502;2023-06-26T05:56:19;10.48;;;6.20;;
13981;SDS011;7065;50.880;5.502;2023-06-26T05:58:46;10.63;;;6.10;;
13981;SDS011;7065;50.880;5.502;2023-06-26T06:01:12;9.85;;;5.13;;
13981;SDS011;7065;50.880;5.502;2023-06-26T06:03:38;12.45;;;5.65;;
13981;SDS011;7065;50.880;5.502;2023-06-26T06:06:04;7.65;;;5.45;;
13981;SDS011;7065;50.880;5.502;2023-06-26T06:08:30;13.23;;;6.40;;
13981;SDS011;7065;50.880;5.502;2023-06-26T06:10:56;9.98;;;5.45;;
13981;SDS011;7065;50.880;5.502;2023-06-26T06:13:22;8.48;;;5.47;;
13981;SDS011;7065;50.880;5.502;2023-06-26T06:15:47;12.05;;;6.05;;
13981;SDS011;7065;50.880;5.502;2023-06-26T06:18:14;7.82;;;4.78;;
13981;SDS011;7065;50.880;5.502;2023-06-26T06:20:39;13.35;;;5.03;;
13981;SDS011;7065;50.880;5.502;2023-06-26T06:23:05;10.60;;;5.15;;
13981;SDS011;7065;50.880;5.502;2023-06-26T06:25:31;10.35;;;5.45;;
13981;SDS011;7065;50.880;5.502;2023-06-26T06:27:57;9.43;;;4.75;;
13981;SDS011;7065;50.880;5.502;2023-06-26T06:30:22;6.97;;;3.97;;
13981;SDS011;7065;50.880;5.502;2023-06-26T06:32:49;11.10;;;5.00;;
13981;SDS011;7065;50.880;5.502;2023-06-26T06:35:17;10.45;;;4.90;;
13981;SDS011;7065;50.880;5.502;2023-06-26T06:37:44;9.40;;;4.55;;
13981;SDS011;7065;50.880;5.502;2023-06-26T06:40:10;8.68;;;4.10;;
13981;SDS011;7065;50.880;5.502;2023-06-26T06:42:36;7.82;;;4.10;;
13981;SDS011;7065;50.880;5.502;2023-06-26T06:45:02;7.75;;;4.40;;
13981;SDS011;7065;50.880;5.502;2023-06-26T06:47:29;9.90;;;4.30;;
13981;SDS011;7065;50.880;5.502;2023-06-26T06:49:55;10.10;;;4.25;;
13981;SDS011;7065;50.880;5.502;2023-06-26T06:52:21;10.45;;;4.47;;
13981;SDS011;7065;50.880;5.502;2023-06-26T06:57:24;8.40;;;3.72;;
13981;SDS011;7065;50.880;5.502;2023-06-26T06:59:50;10.88;;;4.45;;
13981;SDS011;7065;50.880;5.502;2023-06-26T07:02:19;7.70;;;3.85;;
13981;SDS011;7065;50.880;5.502;2023-06-26T07:04:45;8.65;;;3.75;;
13981;SDS011;7065;50.880;5.502;2023-06-26T07:07:11;10.25;;;4.03;;
13981;SDS011;7065;50.880;5.502;2023-06-26T07:09:38;7.68;;;3.15;;
13981;SDS011;7065;50.880;5.502;2023-06-26T07:12:05;9.98;;;4.03;;
13981;SDS011;7065;50.880;5.502;2023-06-26T07:14:31;9.50;;;3.65;;
13981;SDS011;7065;50.880;5.502;2023-06-26T07:16:56;8.80;;;3.33;;
13981;SDS011;7065;50.880;5.502;2023-06-26T07:19:22;8.23;;;3.70;;
13981;SDS011;7065;50.880;5.502;2023-06-26T07:21:48;9.90;;;3.75;;
13981;SDS011;7065;50.880;5.502;2023-06-26T07:24:13;7.88;;;3.38;;
13981;SDS011;7065;50.880;5.502;2023-06-26T07:26:39;7.32;;;3.33;;
13981;SDS011;7065;50.880;5.502;2023-06-26T07:29:05;9.98;;;3.90;;
13981;SDS011;7065;50.880;5.502;2023-06-26T07:31:30;7.47;;;3.90;;
13981;SDS011;7065;50.880;5.502;2023-06-26T07:33:56;7.65;;;3.40;;
13981;SDS011;7065;50.880;5.502;2023-06-26T07:36:22;7.40;;;2.85;;
13981;SDS011;7065;50.880;5.502;2023-06-26T07:38:47;9.57;;;3.30;;
13981;SDS011;7065;50.880;5.502;2023-06-26T07:41:13;7.10;;;3.13;;
13981;SDS011;7065;50.880;5.502;2023-06-26T07:43:39;7.22;;;3.47;;
13981;SDS011;7065;50.880;5.502;2023-06-26T07:46:04;9.48;;;3.92;;
13981;SDS011;7065;50.880;5.502;2023-06-26T07:48:30;8.40;;;3.53;;
13981;SDS011;7065;50.880;5.502;2023-06-26T07:50:56;8.20;;;3.40;;
13981;SDS011;7065;50.880;5.502;2023-06-26T07:53:22;7.28;;;3.25;;
13981;SDS011;7065;50.880;5.502;2023-06-26T07:55:48;11.52;;;3.47;;
13981;SDS011;7065;50.880;5.502;2023-06-26T07:58:13;9.23;;;3.20;;
13981;SDS011;7065;50.880;5.502;2023-06-26T08:00:39;7.95;;;3.53;;
13981;SDS011;7065;50.880;5.502;2023-06-26T08:03:05;7.70;;;3.28;;
13981;SDS011;7065;50.880;5.502;2023-06-26T08:05:31;7.47;;;3.20;;
13981;SDS011;7065;50.880;5.502;2023-06-26T08:07:57;11.27;;;3.65;;
13981;SDS011;7065;50.880;5.502;2023-06-26T08:10:22;6.07;;;3.00;;
13981;SDS011;7065;50.880;5.502;2023-06-26T08:12:48;8.43;;;3.63;;
13981;SDS011;7065;50.880;5.502;2023-06-26T08:15:15;5.80;;;3.20;;
13981;SDS011;7065;50.880;5.502;2023-06-26T08:17:41;5.95;;;3.00;;
13981;SDS011;7065;50.880;5.502;2023-06-26T08:20:07;7.85;;;3.70;;
13981;SDS011;7065;50.880;5.502;2023-06-26T08:22:33;9.93;;;3.83;;
13981;SDS011;7065;50.880;5.502;2023-06-26T08:24:59;8.65;;;3.22;;
13981;SDS011;7065;50.880;5.502;2023-06-26T08:27:25;5.80;;;2.75;;
13981;SDS011;7065;50.880;5.502;2023-06-26T08:29:50;6.78;;;2.80;;
13981;SDS011;7065;50.880;5.502;2023-06-26T08:32:17;6.45;;;2.85;;
13981;SDS011;7065;50.880;5.502;2023-06-26T08:34:42;5.72;;;2.70;;
13981;SDS011;7065;50.880;5.502;2023-06-26T08:37:08;6.88;;;2.78;;
13981;SDS011;7065;50.880;5.502;2023-06-26T08:39:34;8.65;;;3.40;;
13981;SDS011;7065;50.880;5.502;2023-06-26T08:42:00;8.57;;;2.88;;
13981;SDS011;7065;50.880;5.502;2023-06-26T08:44:26;6.65;;;2.85;;
13981;SDS011;7065;50.880;5.502;2023-06-26T08:46:51;8.35;;;3.17;;
13981;SDS011;7065;50.880;5.502;2023-06-26T08:49:18;7.10;;;3.17;;
13981;SDS011;7065;50.880;5.502;2023-06-26T08:51:52;5.70;;;2.95;;
13981;SDS011;7065;50.880;5.502;2023-06-26T08:54:27;7.50;;;3.60;;
13981;SDS011;7065;50.880;5.502;2023-06-26T08:56:56;9.52;;;2.88;;
13981;SDS011;7065;50.880;5.502;2023-06-26T08:59:24;4.90;;;2.90;;
13981;SDS011;7065;50.880;5.502;2023-06-26T09:01:50;6.05;;;3.00;;
13981;SDS011;7065;50.880;5.502;2023-06-26T09:04:15;6.75;;;3.33;;
13981;SDS011;7065;50.880;5.502;2023-06-26T09:06:41;8.25;;;3.30;;
13981;SDS011;7065;50.880;5.502;2023-06-26T09:09:07;7.82;;;3.03;;
13981;SDS011;7065;50.880;5.502;2023-06-26T09:11:33;7.50;;;2.58;;
13981;SDS011;7065;50.880;5.502;2023-06-26T09:13:59;6.28;;;2.80;;
13981;SDS011;7065;50.880;5.502;2023-06-26T09:16:25;4.80;;;2.70;;
13981;SDS011;7065;50.880;5.502;2023-06-26T09:18:52;4.63;;;2.83;;
13981;SDS011;7065;50.880;5.502;2023-06-26T09:21:18;8.05;;;3.58;;
13981;SDS011;7065;50.880;5.502;2023-06-26T09:23:44;6.47;;;3.05;;
13981;SDS011;7065;50.880;5.502;2023-06-26T09:26:10;5.97;;;2.63;;
13981;SDS011;7065;50.880;5.502;2023-06-26T09:28:36;4.97;;;2.33;;
13981;SDS011;7065;50.880;5.502;2023-06-26T09:31:04;6.15;;;2.92;;
13981;SDS011;7065;50.880;5.502;2023-06-26T09:33:34;8.38;;;2.90;;
13981;SDS011;7065;50.880;5.502;2023-06-26T09:36:01;8.30;;;2.78;;
13981;SDS011;7065;50.880;5.502;2023-06-26T09:38:35;5.28;;;2.60;;
13981;SDS011;7065;50.880;5.502;2023-06-26T09:41:01;9.45;;;2.85;;
13981;SDS011;7065;50.880;5.502;2023-06-26T09:43:30;8.23;;;2.33;;
13981;SDS011;7065;50.880;5.502;2023-06-26T09:45:56;4.63;;;2.40;;
13981;SDS011;7065;50.880;5.502;2023-06-26T09:48:23;8.07;;;2.78;;
13981;SDS011;7065;50.880;5.502;2023-06-26T09:50:49;5.15;;;2.20;;
13981;SDS011;7065;50.880;5.502;2023-06-26T09:53:15;5.28;;;2.30;;
13981;SDS011;7065;50.880;5.502;2023-06-26T09:55:43;4.25;;;2.38;;
13981;SDS011;7065;50.880;5.502;2023-06-26T09:58:10;4.43;;;2.30;;
13981;SDS011;7065;50.880;5.502;2023-06-26T10:00:40;3.63;;;2.15;;
13981;SDS011;7065;50.880;5.502;2023-06-26T10:03:07;6.63;;;2.25;;
13981;SDS011;7065;50.880;5.502;2023-06-26T10:05:34;4.38;;;2.00;;
13981;SDS011;7065;50.880;5.502;2023-06-26T10:08:00;4.68;;;1.75;;
13981;SDS011;7065;50.880;5.502;2023-06-26T10:10:27;6.60;;;2.28;;
13981;SDS011;7065;50.880;5.502;2023-06-26T10:12:55;3.95;;;2.13;;
13981;SDS011;7065;50.880;5.502;2023-06-26T10:15:26;5.53;;;1.77;;
13981;SDS011;7065;50.880;5.502;2023-06-26T10:17:54;5.63;;;1.75;;
13981;SDS011;7065;50.880;5.502;2023-06-26T10:20:22;5.50;;;1.80;;
13981;SDS011;7065;50.880;5.502;2023-06-26T10:22:49;7.70;;;2.00;;
13981;SDS011;7065;50.880;5.502;2023-06-26T10:25:16;3.30;;;1.52;;
13981;SDS011;7065;50.880;5.502;2023-06-26T10:27:45;4.50;;;1.58;;
13981;SDS011;7065;50.880;5.502;2023-06-26T10:30:17;3.45;;;1.50;;
13981;SDS011;7065;50.880;5.502;2023-06-26T10:32:48;5.13;;;1.60;;
13981;SDS011;7065;50.880;5.502;2023-06-26T10:35:15;3.30;;;2.00;;
13981;SDS011;7065;50.880;5.502;2023-06-26T10:40:11;3.90;;;1.60;;
13981;SDS011;7065;50.880;5.502;2023-06-26T10:42:38;2.58;;;1.50;;
13981;SDS011;7065;50.880;5.502;2023-06-26T10:45:09;7.35;;;1.70;;
13981;SDS011;7065;50.880;5.502;2023-06-26T10:47:37;3.78;;;1.45;;
13981;SDS011;7065;50.880;5.502;2023-06-26T10:55:49;2.80;;;1.77;;
13981;SDS011;7065;50.880;5.502;2023-06-26T10:58:40;4.22;;;1.90;;
13981;SDS011;7065;50.880;5.502;2023-06-26T11:01:22;3.35;;;1.65;;
13981;SDS011;7065;50.880;5.502;2023-06-26T11:06:30;3.92;;;1.65;;
13981;SDS011;7065;50.880;5.502;2023-06-26T11:14:17;6.07;;;1.73;;
13981;SDS011;7065;50.880;5.502;2023-06-26T11:16:43;3.13;;;1.60;;
13981;SDS011;7065;50.880;5.502;2023-06-26T11:19:09;4.90;;;1.48;;
13981;SDS011;7065;50.880;5.502;2023-06-26T11:21:39;4.18;;;1.50;;
13981;SDS011;7065;50.880;5.502;2023-06-26T11:24:09;5.07;;;1.50;;
13981;SDS011;7065;50.880;5.502;2023-06-26T11:26:39;3.30;;;1.30;;
13981;SDS011;7065;50.880;5.502;2023-06-26T11:29:06;5.45;;;1.63;;
13981;SDS011;7065;50.880;5.502;2023-06-26T11:31:36;3.30;;;1.20;;
13981;SDS011;7065;50.880;5.502;2023-06-26T11:34:06;2.15;;;1.40;;
13981;SDS011;7065;50.880;5.502;2023-06-26T11:36:37;2.30;;;1.45;;
13981;SDS011;7065;50.880;5.502;2023-06-26T11:39:11;6.63;;;1.60;;
13981;SDS011;7065;50.880;5.502;2023-06-26T11:41:38;3.55;;;1.42;;
13981;SDS011;7065;50.880;5.502;2023-06-26T11:44:05;2.97;;;1.60;;
13981;SDS011;7065;50.880;5.502;2023-06-26T11:46:33;2.15;;;1.20;;
13981;SDS011;7065;50.880;5.502;2023-06-26T11:49:00;8.20;;;1.40;;
13981;SDS011;7065;50.880;5.502;2023-06-26T11:51:31;5.53;;;1.40;;
13981;SDS011;7065;50.880;5.502;2023-06-26T11:54:00;4.03;;;1.60;;
13981;SDS011;7065;50.880;5.502;2023-06-26T11:56:28;5.07;;;1.45;;
13981;SDS011;7065;50.880;5.502;2023-06-26T12:01:33;3.05;;;1.40;;
13981;SDS011;7065;50.880;5.502;2023-06-26T12:03:59;5.97;;;1.55;;
13981;SDS011;7065;50.880;5.502;2023-06-26T12:06:28;2.13;;;1.23;;
13981;SDS011;7065;50.880;5.502;2023-06-26T12:08:59;3.40;;;1.45;;
13981;SDS011;7065;50.880;5.502;2023-06-26T12:11:28;3.67;;;1.40;;
13981;SDS011;7065;50.880;5.502;2023-06-26T12:13:55;4.13;;;1.60;;
13981;SDS011;7065;50.880;5.502;2023-06-26T12:16:21;2.53;;;1.65;;
13981;SDS011;7065;50.880;5.502;2023-06-26T12:18:47;2.85;;;1.35;;
13981;SDS011;7065;50.880;5.502;2023-06-26T12:24:06;3.60;;;1.42;;
13981;SDS011;7065;50.880;5.502;2023-06-26T12:26:32;4.72;;;1.20;;
13981;SDS011;7065;50.880;5.502;2023-06-26T12:29:09;4.00;;;1.55;;
13981;SDS011;7065;50.880;5.502;2023-06-26T12:31:41;3.35;;;1.60;;
13981;SDS011;7065;50.880;5.502;2023-06-26T12:34:15;4.30;;;1.38;;
13981;SDS011;7065;50.880;5.502;2023-06-26T12:36:52;2.38;;;1.30;;
13981;SDS011;7065;50.880;5.502;2023-06-26T12:39:21;4.57;;;1.60;;
13981;SDS011;7065;50.880;5.502;2023-06-26T12:41:54;2.42;;;1.40;;
13981;SDS011;7065;50.880;5.502;2023-06-26T12:44:25;8.05;;;1.60;;
13981;SDS011;7065;50.880;5.502;2023-06-26T12:46:57;2.97;;;1.50;;
13981;SDS011;7065;50.880;5.502;2023-06-26T12:51:59;2.63;;;1.38;;
13981;SDS011;7065;50.880;5.502;2023-06-26T12:54:26;2.80;;;1.48;;
13981;SDS011;7065;50.880;5.502;2023-06-26T12:56:52;3.38;;;1.70;;
13981;SDS011;7065;50.880;5.502;2023-06-26T12:59:18;3.47;;;1.57;;
13981;SDS011;7065;50.880;5.502;2023-06-26T13:01:44;2.85;;;1.55;;
13981;SDS011;7065;50.880;5.502;2023-06-26T13:04:09;3.08;;;1.60;;
13981;SDS011;7065;50.880;5.502;2023-06-26T13:06:35;3.47;;;1.55;;
13981;SDS011;7065;50.880;5.502;2023-06-26T13:09:01;3.75;;;1.50;;
13981;SDS011;7065;50.880;5.502;2023-06-26T13:11:31;7.05;;;1.65;;
13981;SDS011;7065;50.880;5.502;2023-06-26T13:13:58;1.77;;;1.38;;
13981;SDS011;7065;50.880;5.502;2023-06-26T13:16:24;2.33;;;1.15;;
13981;SDS011;7065;50.880;5.502;2023-06-26T13:18:50;3.10;;;1.45;;
13981;SDS011;7065;50.880;5.502;2023-06-26T13:21:16;3.50;;;1.30;;
13981;SDS011;7065;50.880;5.502;2023-06-26T13:23:43;3.40;;;1.33;;
13981;SDS011;7065;50.880;5.502;2023-06-26T13:26:09;2.65;;;1.52;;
13981;SDS011;7065;50.880;5.502;2023-06-26T13:28:35;4.95;;;1.52;;
13981;SDS011;7065;50.880;5.502;2023-06-26T13:31:02;5.10;;;1.50;;
13981;SDS011;7065;50.880;5.502;2023-06-26T13:33:29;2.25;;;1.35;;
13981;SDS011;7065;50.880;5.502;2023-06-26T13:35:55;4.03;;;1.50;;
13981;SDS011;7065;50.880;5.502;2023-06-26T13:38:21;3.20;;;1.25;;
13981;SDS011;7065;50.880;5.502;2023-06-26T13:40:53;6.10;;;1.60;;
13981;SDS011;7065;50.880;5.502;2023-06-26T13:43:22;3.13;;;1.35;;
13981;SDS011;7065;50.880;5.502;2023-06-26T13:45:51;3.10;;;1.63;;
13981;SDS011;7065;50.880;5.502;2023-06-26T13:48:17;3.55;;;1.50;;
13981;SDS011;7065;50.880;5.502;2023-06-26T13:50:43;3.85;;;1.60;;
13981;SDS011;7065;50.880;5.502;2023-06-26T13:53:10;3.25;;;1.60;;
13981;SDS011;7065;50.880;5.502;2023-06-26T13:55:36;4.97;;;1.58;;
13981;SDS011;7065;50.880;5.502;2023-06-26T13:58:03;3.47;;;1.30;;
13981;SDS011;7065;50.880;5.502;2023-06-26T14:00:30;10.13;;;1.70;;
13981;SDS011;7065;50.880;5.502;2023-06-26T14:02:58;2.28;;;1.33;;
13981;SDS011;7065;50.880;5.502;2023-06-26T14:05:28;2.92;;;1.52;;
13981;SDS011;7065;50.880;5.502;2023-06-26T14:07:54;2.30;;;1.38;;
13981;SDS011;7065;50.880;5.502;2023-06-26T14:10:23;4.60;;;1.60;;
13981;SDS011;7065;50.880;5.502;2023-06-26T14:12:49;3.78;;;1.80;;
13981;SDS011;7065;50.880;5.502;2023-06-26T14:15:15;4.25;;;1.60;;
13981;SDS011;7065;50.880;5.502;2023-06-26T14:17:41;3.38;;;1.65;;
13981;SDS011;7065;50.880;5.502;2023-06-26T14:20:07;3.13;;;1.13;;
13981;SDS011;7065;50.880;5.502;2023-06-26T14:22:43;3.50;;;1.38;;
13981;SDS011;7065;50.880;5.502;2023-06-26T14:25:09;3.05;;;1.50;;
13981;SDS011;7065;50.880;5.502;2023-06-26T14:27:35;5.15;;;1.63;;
13981;SDS011;7065;50.880;5.502;2023-06-26T14:30:02;4.43;;;1.73;;
13981;SDS011;7065;50.880;5.502;2023-06-26T14:32:30;2.35;;;1.38;;
13981;SDS011;7065;50.880;5.502;2023-06-26T14:34:56;3.03;;;1.67;;
13981;SDS011;7065;50.880;5.502;2023-06-26T14:37:23;5.97;;;1.42;;
13981;SDS011;7065;50.880;5.502;2023-06-26T14:39:50;2.83;;;1.70;;
13981;SDS011;7065;50.880;5.502;2023-06-26T14:42:15;4.55;;;1.50;;
13981;SDS011;7065;50.880;5.502;2023-06-26T14:44:42;4.47;;;1.90;;
13981;SDS011;7065;50.880;5.502;2023-06-26T14:47:08;5.88;;;1.73;;
13981;SDS011;7065;50.880;5.502;2023-06-26T14:49:33;2.03;;;1.38;;
13981;SDS011;7065;50.880;5.502;2023-06-26T14:51:59;3.17;;;1.70;;
13981;SDS011;7065;50.880;5.502;2023-06-26T14:54:25;6.35;;;1.85;;
13981;SDS011;7065;50.880;5.502;2023-06-26T14:56:51;3.22;;;1.65;;
13981;SDS011;7065;50.880;5.502;2023-06-26T14:59:16;2.63;;;1.60;;
13981;SDS011;7065;50.880;5.502;2023-06-26T15:01:42;5.25;;;1.40;;
13981;SDS011;7065;50.880;5.502;2023-06-26T15:04:08;2.80;;;1.50;;
13981;SDS011;7065;50.880;5.502;2023-06-26T15:06:35;3.08;;;1.30;;
13981;SDS011;7065;50.880;5.502;2023-06-26T15:09:00;2.20;;;1.50;;
13981;SDS011;7065;50.880;5.502;2023-06-26T15:11:28;3.45;;;1.60;;
13981;SDS011;7065;50.880;5.502;2023-06-26T15:13:55;2.92;;;1.50;;
13981;SDS011;7065;50.880;5.502;2023-06-26T15:16:21;5.60;;;1.85;;
13981;SDS011;7065;50.880;5.502;2023-06-26T15:18:47;3.08;;;1.52;;
13981;SDS011;7065;50.880;5.502;2023-06-26T15:21:14;3.25;;;1.60;;
13981;SDS011;7065;50.880;5.502;2023-06-26T15:23:41;3.05;;;1.67;;
13981;SDS011;7065;50.880;5.502;2023-06-26T15:26:06;3.17;;;1.60;;
13981;SDS011;7065;50.880;5.502;2023-06-26T15:28:32;4.32;;;1.60;;
13981;SDS011;7065;50.880;5.502;2023-06-26T15:30:58;3.08;;;1.50;;